createdAt,value
2017-04-07T00:00:05.543Z,1019.1
2017-04-07T00:01:05.408Z,1019.09
2017-04-07T00:02:05.384Z,1019.07
2017-04-07T00:03:05.362Z,1019.07
2017-04-07T00:04:05.345Z,1019.02
2017-04-07T00:05:05.323Z,1019.01
2017-04-07T00:06:05.302Z,1019.02
2017-04-07T00:07:05.283Z,1018.96
2017-04-07T00:08:05.256Z,1018.96
2017-04-07T00:09:05.235Z,1018.93
2017-04-07T00:10:05.219Z,1018.9
2017-04-07T00:11:05.197Z,1018.86
2017-04-07T00:12:05.182Z,1018.88
2017-04-07T00:13:05.162Z,1018.86
2017-04-07T00:14:05.132Z,1018.83
2017-04-07T00:15:05.113Z,1018.83
2017-04-07T00:16:05.102Z,1018.81
2017-04-07T00:17:05.073Z,1018.83
2017-04-07T00:18:05.051Z,1018.83
2017-04-07T00:19:05.033Z,1018.83
2017-04-07T00:20:05.008Z,1018.79
2017-04-07T00:21:04.986Z,1018.81
2017-04-07T00:22:04.973Z,1018.79
2017-04-07T00:23:04.945Z,1018.8
2017-04-07T00:24:04.923Z,1018.81
2017-04-07T00:25:04.909Z,1018.76
2017-04-07T00:26:04.884Z,1018.79
2017-04-07T00:27:04.865Z,1018.76
2017-04-07T00:28:04.839Z,1018.73
2017-04-07T00:29:04.817Z,1018.73
2017-04-07T00:30:04.794Z,1018.74
2017-04-07T00:31:04.777Z,1018.71
2017-04-07T00:32:04.755Z,1018.68
2017-04-07T00:33:04.731Z,1018.68
2017-04-07T00:34:04.712Z,1018.62
2017-04-07T00:35:04.691Z,1018.62
2017-04-07T00:36:04.673Z,1018.54
2017-04-07T00:37:04.651Z,1018.52
2017-04-07T00:38:04.627Z,1018.5
2017-04-07T00:39:04.613Z,1018.46
2017-04-07T00:40:04.594Z,1018.47
2017-04-07T00:41:04.563Z,1018.42
2017-04-07T00:42:04.544Z,1018.41
2017-04-07T00:43:04.524Z,1018.39
2017-04-07T00:44:04.502Z,1018.39
2017-04-07T00:45:04.485Z,1018.38
2017-04-07T00:46:04.461Z,1018.4
2017-04-07T00:47:04.438Z,1018.35
2017-04-07T00:48:04.412Z,1018.35
2017-04-07T00:49:04.393Z,1018.34
2017-04-07T00:50:04.374Z,1018.35
2017-04-07T00:51:04.350Z,1018.34
2017-04-07T00:52:04.332Z,1018.33
2017-04-07T00:53:04.313Z,1018.32
2017-04-07T00:54:04.286Z,1018.33
2017-04-07T00:55:04.273Z,1018.31
2017-04-07T00:56:04.246Z,1018.33
2017-04-07T00:57:04.224Z,1018.33
2017-04-07T00:58:04.201Z,1018.31
2017-04-07T00:59:04.184Z,1018.33
2017-04-07T01:00:04.163Z,1018.33
2017-04-07T01:01:04.146Z,1018.33
2017-04-07T01:02:04.123Z,1018.29
2017-04-07T01:03:04.092Z,1018.29
2017-04-07T01:04:04.073Z,1018.29
2017-04-07T01:05:04.052Z,1018.28
2017-04-07T01:06:04.031Z,1018.26
2017-04-07T01:07:04.014Z,1018.28
2017-04-07T01:08:03.995Z,1018.24
2017-04-07T01:09:03.968Z,1018.21
2017-04-07T01:10:03.944Z,1018.18
2017-04-07T01:11:03.923Z,1018.19
2017-04-07T01:12:03.902Z,1018.18
2017-04-07T01:13:03.882Z,1018.22
2017-04-07T01:14:03.862Z,1018.21
2017-04-07T01:15:03.838Z,1018.19
2017-04-07T01:16:03.821Z,1018.18
2017-04-07T01:17:03.794Z,1018.15
2017-04-07T01:18:03.772Z,1018.12
2017-04-07T01:19:03.753Z,1018.1
2017-04-07T01:20:03.735Z,1018.08
2017-04-07T01:21:03.712Z,1018.07
2017-04-07T01:22:03.685Z,1018.05
2017-04-07T01:23:03.673Z,1018.07
2017-04-07T01:24:03.643Z,1018.08
2017-04-07T01:25:03.622Z,1018.07
2017-04-07T01:26:03.605Z,1018.01
2017-04-07T01:27:03.583Z,1018.04
2017-04-07T01:28:03.556Z,1017.99
2017-04-07T01:29:03.545Z,1017.96
2017-04-07T01:30:03.523Z,1017.99
2017-04-07T01:31:03.493Z,1017.97
2017-04-07T01:32:03.469Z,1017.96
2017-04-07T01:33:03.451Z,1017.94
2017-04-07T01:34:03.430Z,1017.99
2017-04-07T01:35:03.413Z,1017.99
2017-04-07T01:36:03.388Z,1017.97
2017-04-07T01:37:03.368Z,1018.01
2017-04-07T01:38:03.344Z,1018.03
2017-04-07T01:39:03.324Z,1018.01
2017-04-07T01:40:03.303Z,1017.95
2017-04-07T01:41:03.279Z,1018
2017-04-07T01:42:03.257Z,1017.93
2017-04-07T01:43:03.233Z,1017.99
2017-04-07T01:44:03.214Z,1017.97
2017-04-07T01:45:03.205Z,1017.99
2017-04-07T01:46:03.175Z,1017.97
2017-04-07T01:47:03.158Z,1017.94
2017-04-07T01:48:03.130Z,1017.95
2017-04-07T01:49:03.111Z,1017.93
2017-04-07T01:50:03.097Z,1017.96
2017-04-07T01:51:03.075Z,1017.94
2017-04-07T01:52:03.049Z,1017.94
2017-04-07T01:53:03.037Z,1017.94
2017-04-07T01:54:03.002Z,1017.89
2017-04-07T01:55:02.981Z,1017.89
2017-04-07T01:56:02.956Z,1017.87
2017-04-07T01:57:02.932Z,1017.85
2017-04-07T01:58:02.914Z,1017.89
2017-04-07T01:59:02.893Z,1017.87
2017-04-07T02:00:02.876Z,1017.9
2017-04-07T02:01:02.846Z,1017.85
2017-04-07T02:02:02.828Z,1017.86
2017-04-07T02:03:02.806Z,1017.88
2017-04-07T02:04:02.790Z,1017.87
2017-04-07T02:05:02.761Z,1017.85
2017-04-07T02:06:02.743Z,1017.87
2017-04-07T02:07:02.718Z,1017.88
2017-04-07T02:08:02.697Z,1017.85
2017-04-07T02:09:02.678Z,1017.84
2017-04-07T02:10:02.657Z,1017.83
2017-04-07T02:11:02.642Z,1017.86
2017-04-07T02:12:02.612Z,1017.8
2017-04-07T02:13:02.592Z,1017.83
2017-04-07T02:14:02.573Z,1017.83
2017-04-07T02:15:02.554Z,1017.83
2017-04-07T02:16:02.528Z,1017.84
2017-04-07T02:17:02.512Z,1017.83
2017-04-07T02:18:02.489Z,1017.81
2017-04-07T02:19:02.464Z,1017.8
2017-04-07T02:20:02.443Z,1017.8
2017-04-07T02:21:02.421Z,1017.78
2017-04-07T02:22:02.400Z,1017.82
2017-04-07T02:23:02.382Z,1017.78
2017-04-07T02:24:02.361Z,1017.82
2017-04-07T02:25:02.340Z,1017.81
2017-04-07T02:26:02.315Z,1017.82
2017-04-07T02:27:02.293Z,1017.84
2017-04-07T02:28:02.275Z,1017.82
2017-04-07T02:29:02.249Z,1017.82
2017-04-07T02:30:02.229Z,1017.86
2017-04-07T02:31:02.213Z,1017.82
2017-04-07T02:32:02.187Z,1017.84
2017-04-07T02:33:02.165Z,1017.82
2017-04-07T02:34:02.142Z,1017.82
2017-04-07T02:35:02.123Z,1017.82
2017-04-07T02:36:02.102Z,1017.82
2017-04-07T02:37:02.083Z,1017.86
2017-04-07T02:38:02.061Z,1017.89
2017-04-07T02:39:02.045Z,1017.83
2017-04-07T02:40:02.022Z,1017.81
2017-04-07T02:41:01.991Z,1017.86
2017-04-07T02:42:01.972Z,1017.79
2017-04-07T02:43:01.952Z,1017.8
2017-04-07T02:44:01.930Z,1017.83
2017-04-07T02:45:01.961Z,1017.8
2017-04-07T02:46:01.892Z,1017.83
2017-04-07T02:47:01.871Z,1017.83
2017-04-07T02:48:01.844Z,1017.82
2017-04-07T02:49:01.832Z,1017.79
2017-04-07T02:50:01.801Z,1017.85
2017-04-07T02:51:01.831Z,1017.86
2017-04-07T02:52:01.764Z,1017.84
2017-04-07T02:53:01.760Z,1017.81
2017-04-07T02:54:01.723Z,1017.8
2017-04-07T02:55:01.803Z,1017.77
2017-04-07T02:56:01.673Z,1017.72
2017-04-07T02:57:01.690Z,1017.72
2017-04-07T02:58:01.632Z,1017.76
2017-04-07T02:59:01.711Z,1017.73
2017-04-07T03:00:01.588Z,1017.67
2017-04-07T03:01:01.672Z,1017.7
2017-04-07T03:02:01.546Z,1017.64
2017-04-07T03:03:01.626Z,1017.68
2017-04-07T03:04:01.503Z,1017.64
2017-04-07T03:05:01.488Z,1017.65
2017-04-07T03:06:01.463Z,1017.64
2017-04-07T03:07:01.543Z,1017.62
2017-04-07T03:08:01.418Z,1017.63
2017-04-07T03:09:01.399Z,1017.6
2017-04-07T03:10:01.381Z,1017.61
2017-04-07T03:11:01.463Z,1017.65
2017-04-07T03:12:01.333Z,1017.63
2017-04-07T03:13:01.322Z,1017.61
2017-04-07T03:14:01.292Z,1017.62
2017-04-07T03:15:01.334Z,1017.58
2017-04-07T03:16:01.254Z,1017.59
2017-04-07T03:17:01.233Z,1017.54
2017-04-07T03:18:01.204Z,1017.53
2017-04-07T03:19:01.184Z,1017.53
2017-04-07T03:20:01.164Z,1017.47
2017-04-07T03:21:01.146Z,1017.48
2017-04-07T03:22:01.122Z,1017.48
2017-04-07T03:23:01.112Z,1017.5
2017-04-07T03:24:01.081Z,1017.43
2017-04-07T03:25:01.060Z,1017.46
2017-04-07T03:26:01.041Z,1017.46
2017-04-07T03:27:01.019Z,1017.44
2017-04-07T03:28:00.992Z,1017.42
2017-04-07T03:29:00.970Z,1017.41
2017-04-07T03:30:00.954Z,1017.43
2017-04-07T03:31:00.935Z,1017.39
2017-04-07T03:32:00.911Z,1017.38
2017-04-07T03:33:00.894Z,1017.35
2017-04-07T03:34:00.869Z,1017.4
2017-04-07T03:35:00.851Z,1017.38
2017-04-07T03:36:00.822Z,1017.41
2017-04-07T03:37:00.802Z,1017.42
2017-04-07T03:38:00.781Z,1017.42
2017-04-07T03:39:00.762Z,1017.42
2017-04-07T03:40:00.742Z,1017.41
2017-04-07T03:41:00.724Z,1017.37
2017-04-07T03:42:00.699Z,1017.39
2017-04-07T03:43:00.680Z,1017.35
2017-04-07T03:44:00.657Z,1017.36
2017-04-07T03:45:00.636Z,1017.34
2017-04-07T03:46:00.613Z,1017.32
2017-04-07T03:47:00.591Z,1017.31
2017-04-07T03:48:00.568Z,1017.3
2017-04-07T03:49:00.551Z,1017.26
2017-04-07T03:50:00.533Z,1017.27
2017-04-07T03:51:00.514Z,1017.29
2017-04-07T03:52:00.493Z,1017.28
2017-04-07T03:53:00.466Z,1017.24
2017-04-07T03:54:00.452Z,1017.26
2017-04-07T03:55:00.422Z,1017.27
2017-04-07T03:56:00.400Z,1017.28
2017-04-07T03:57:00.381Z,1017.29
2017-04-07T03:58:00.360Z,1017.29
2017-04-07T03:59:00.340Z,1017.29
2017-04-07T04:00:00.322Z,1017.29
2017-04-07T04:01:00.298Z,1017.31
2017-04-07T04:02:00.277Z,1017.3
2017-04-07T04:03:00.255Z,1017.29
2017-04-07T04:04:00.241Z,1017.3
2017-04-07T04:05:00.212Z,1017.29
2017-04-07T04:06:00.192Z,1017.31
2017-04-07T04:07:00.169Z,1017.34
2017-04-07T04:08:00.153Z,1017.28
2017-04-07T04:09:00.127Z,1017.33
2017-04-07T04:10:00.111Z,1017.32
2017-04-07T04:11:00.092Z,1017.29
2017-04-07T04:12:00.073Z,1017.36
2017-04-07T04:13:00.041Z,1017.34
2017-04-07T04:14:00.022Z,1017.32
2017-04-07T04:15:00.003Z,1017.32
2017-04-07T04:15:59.977Z,1017.33
2017-04-07T04:16:59.961Z,1017.31
2017-04-07T04:17:59.941Z,1017.32
2017-04-07T04:18:59.914Z,1017.31
2017-04-07T04:19:59.898Z,1017.39
2017-04-07T04:20:59.881Z,1017.34
2017-04-07T04:21:59.853Z,1017.38
2017-04-07T04:22:59.834Z,1017.37
2017-04-07T04:23:59.812Z,1017.35
2017-04-07T04:24:59.788Z,1017.36
2017-04-07T04:25:59.769Z,1017.37
2017-04-07T04:26:59.750Z,1017.4
2017-04-07T04:27:59.725Z,1017.38
2017-04-07T04:28:59.702Z,1017.41
2017-04-07T04:29:59.698Z,1017.35
2017-04-07T04:30:59.660Z,1017.4
2017-04-07T04:31:59.641Z,1017.44
2017-04-07T04:32:59.618Z,1017.4
2017-04-07T04:33:59.600Z,1017.45
2017-04-07T04:34:59.576Z,1017.45
2017-04-07T04:35:59.562Z,1017.42
2017-04-07T04:36:59.537Z,1017.4
2017-04-07T04:37:59.512Z,1017.44
2017-04-07T04:38:59.491Z,1017.46
2017-04-07T04:39:59.473Z,1017.45
2017-04-07T04:40:59.447Z,1017.43
2017-04-07T04:41:59.432Z,1017.44
2017-04-07T04:42:59.411Z,1017.45
2017-04-07T04:43:59.385Z,1017.42
2017-04-07T04:44:59.361Z,1017.46
2017-04-07T04:45:59.346Z,1017.44
2017-04-07T04:46:59.321Z,1017.45
2017-04-07T04:47:59.299Z,1017.46
2017-04-07T04:48:59.280Z,1017.44
2017-04-07T04:49:59.257Z,1017.43
2017-04-07T04:50:59.237Z,1017.4
2017-04-07T04:51:59.220Z,1017.4
2017-04-07T04:52:59.202Z,1017.43
2017-04-07T04:53:59.173Z,1017.43
2017-04-07T04:54:59.152Z,1017.45
2017-04-07T04:55:59.131Z,1017.41
2017-04-07T04:56:59.114Z,1017.39
2017-04-07T04:57:59.092Z,1017.4
2017-04-07T04:58:59.067Z,1017.41
2017-04-07T04:59:59.050Z,1017.42
2017-04-07T05:00:59.032Z,1017.42
2017-04-07T05:01:59.011Z,1017.4
2017-04-07T05:02:58.992Z,1017.4
2017-04-07T05:03:58.963Z,1017.38
2017-04-07T05:04:58.941Z,1017.39
2017-04-07T05:05:58.923Z,1017.38
2017-04-07T05:06:58.934Z,1017.38
2017-04-07T05:07:58.881Z,1017.32
2017-04-07T05:08:58.855Z,1017.33
2017-04-07T05:09:58.836Z,1017.32
2017-04-07T05:10:58.814Z,1017.32
2017-04-07T05:11:58.791Z,1017.29
2017-04-07T05:12:58.773Z,1017.33
2017-04-07T05:13:58.750Z,1017.3
2017-04-07T05:14:58.730Z,1017.32
2017-04-07T05:15:58.712Z,1017.29
2017-04-07T05:16:58.694Z,1017.28
2017-04-07T05:17:58.665Z,1017.32
2017-04-07T05:18:58.646Z,1017.32
2017-04-07T05:19:58.623Z,1017.28
2017-04-07T05:20:58.602Z,1017.36
2017-04-07T05:21:58.581Z,1017.32
2017-04-07T05:22:58.561Z,1017.32
2017-04-07T05:23:58.539Z,1017.29
2017-04-07T05:24:58.524Z,1017.34
2017-04-07T05:25:58.496Z,1017.36
2017-04-07T05:26:58.475Z,1017.37
2017-04-07T05:27:58.464Z,1017.33
2017-04-07T05:28:58.435Z,1017.32
2017-04-07T05:29:58.414Z,1017.32
2017-04-07T05:30:58.390Z,1017.36
2017-04-07T05:31:58.371Z,1017.37
2017-04-07T05:32:58.352Z,1017.34
2017-04-07T05:33:58.326Z,1017.37
2017-04-07T05:34:58.313Z,1017.39
2017-04-07T05:35:58.291Z,1017.39
2017-04-07T05:36:58.268Z,1017.42
2017-04-07T05:37:58.247Z,1017.44
2017-04-07T05:38:58.224Z,1017.44
2017-04-07T05:39:58.201Z,1017.5
2017-04-07T05:40:58.181Z,1017.47
2017-04-07T05:41:58.160Z,1017.45
2017-04-07T05:42:58.140Z,1017.48
2017-04-07T05:43:58.120Z,1017.46
2017-04-07T05:44:58.100Z,1017.49
2017-04-07T05:45:58.084Z,1017.46
2017-04-07T05:46:58.060Z,1017.47
2017-04-07T05:47:58.036Z,1017.48
2017-04-07T05:48:58.014Z,1017.49
2017-04-07T05:49:57.996Z,1017.47
2017-04-07T05:50:57.973Z,1017.48
2017-04-07T05:51:57.951Z,1017.44
2017-04-07T05:52:57.932Z,1017.45
2017-04-07T05:53:57.910Z,1017.47
2017-04-07T05:54:57.887Z,1017.46
2017-04-07T05:55:57.884Z,1017.47
2017-04-07T05:56:57.852Z,1017.48
2017-04-07T05:57:57.831Z,1017.46
2017-04-07T05:58:57.809Z,1017.51
2017-04-07T05:59:57.789Z,1017.48
2017-04-07T06:00:57.769Z,1017.54
2017-04-07T06:01:57.745Z,1017.54
2017-04-07T06:02:57.721Z,1017.51
2017-04-07T06:03:57.711Z,1017.55
2017-04-07T06:04:57.682Z,1017.54
2017-04-07T06:05:57.721Z,1017.62
2017-04-07T06:06:57.642Z,1017.6
2017-04-07T06:07:57.621Z,1017.62
2017-04-07T06:08:57.602Z,1017.6
2017-04-07T06:09:57.581Z,1017.64
2017-04-07T06:10:57.887Z,1017.64
2017-04-07T06:11:57.542Z,1017.66
2017-04-07T06:12:57.517Z,1017.66
2017-04-07T06:13:57.494Z,1017.65
2017-04-07T06:14:57.475Z,1017.66
2017-04-07T06:15:57.461Z,1017.7
2017-04-07T06:16:57.432Z,1017.7
2017-04-07T06:17:57.412Z,1017.71
2017-04-07T06:18:57.392Z,1017.66
2017-04-07T06:19:57.372Z,1017.7
2017-04-07T06:20:57.351Z,1017.64
2017-04-07T06:21:57.333Z,1017.71
2017-04-07T06:22:57.311Z,1017.63
2017-04-07T06:23:57.286Z,1017.7
2017-04-07T06:24:57.273Z,1017.72
2017-04-07T06:25:57.247Z,1017.7
2017-04-07T06:26:57.233Z,1017.69
2017-04-07T06:27:57.210Z,1017.69
2017-04-07T06:28:57.190Z,1017.68
2017-04-07T06:29:57.172Z,1017.72
2017-04-07T06:30:57.145Z,1017.67
2017-04-07T06:31:57.130Z,1017.65
2017-04-07T06:32:57.104Z,1017.65
2017-04-07T06:33:57.080Z,1017.66
2017-04-07T06:34:57.066Z,1017.59
2017-04-07T06:35:57.040Z,1017.62
2017-04-07T06:36:57.021Z,1017.64
2017-04-07T06:37:57.000Z,1017.61
2017-04-07T06:38:56.982Z,1017.61
2017-04-07T06:39:56.963Z,1017.59
2017-04-07T06:40:56.942Z,1017.58
2017-04-07T06:41:56.929Z,1017.6
2017-04-07T06:42:56.908Z,1017.57
2017-04-07T06:43:56.875Z,1017.59
2017-04-07T06:44:56.861Z,1017.62
2017-04-07T06:45:56.840Z,1017.62
2017-04-07T06:46:56.823Z,1017.62
2017-04-07T06:47:56.801Z,1017.6
2017-04-07T06:48:56.777Z,1017.57
2017-04-07T06:49:56.756Z,1017.61
2017-04-07T06:50:56.742Z,1017.64
2017-04-07T06:51:56.712Z,1017.67
2017-04-07T06:52:56.690Z,1017.61
2017-04-07T06:53:56.680Z,1017.67
2017-04-07T06:54:56.654Z,1017.62
2017-04-07T06:55:56.631Z,1017.6
2017-04-07T06:56:56.614Z,1017.63
2017-04-07T06:57:56.592Z,1017.61
2017-04-07T06:58:56.572Z,1017.63
2017-04-07T06:59:56.551Z,1017.64
2017-04-07T07:00:56.532Z,1017.64
2017-04-07T07:01:56.513Z,1017.65
2017-04-07T07:02:56.492Z,1017.66
2017-04-07T07:03:56.468Z,1017.67
2017-04-07T07:04:56.449Z,1017.66
2017-04-07T07:05:56.428Z,1017.69
2017-04-07T07:06:56.412Z,1017.7
2017-04-07T07:07:56.387Z,1017.68
2017-04-07T07:08:56.374Z,1017.67
2017-04-07T07:09:56.351Z,1017.67
2017-04-07T07:10:56.332Z,1017.62
2017-04-07T07:11:56.308Z,1017.64
2017-04-07T07:12:56.295Z,1017.65
2017-04-07T07:13:56.270Z,1017.7
2017-04-07T07:14:56.250Z,1017.7
2017-04-07T07:15:56.233Z,1017.7
2017-04-07T07:16:56.212Z,1017.72
2017-04-07T07:17:56.191Z,1017.72
2017-04-07T07:18:56.167Z,1017.73
2017-04-07T07:19:56.163Z,1017.72
2017-04-07T07:20:56.130Z,1017.75
2017-04-07T07:21:56.145Z,1017.76
2017-04-07T07:22:56.087Z,1017.72
2017-04-07T07:23:56.121Z,1017.7
2017-04-07T07:24:56.052Z,1017.74
2017-04-07T07:25:56.181Z,1017.75
2017-04-07T07:26:56.009Z,1017.76
2017-04-07T07:27:56.041Z,1017.74
2017-04-07T07:28:55.971Z,1017.74
2017-04-07T07:29:55.996Z,1017.75
2017-04-07T07:30:55.929Z,1017.72
2017-04-07T07:31:55.960Z,1017.72
2017-04-07T07:32:55.893Z,1017.72
2017-04-07T07:33:55.878Z,1017.71
2017-04-07T07:34:55.851Z,1017.75
2017-04-07T07:35:55.926Z,1017.73
2017-04-07T07:36:55.812Z,1017.75
2017-04-07T07:37:55.840Z,1017.7
2017-04-07T07:38:55.772Z,1017.7
2017-04-07T07:39:55.754Z,1017.72
2017-04-07T07:40:55.733Z,1017.75
2017-04-07T07:41:55.711Z,1017.73
2017-04-07T07:42:55.696Z,1017.73
2017-04-07T07:43:55.673Z,1017.77
2017-04-07T07:44:55.647Z,1017.71
2017-04-07T07:45:55.732Z,1017.74
2017-04-07T07:46:55.613Z,1017.68
2017-04-07T07:47:55.701Z,1017.72
2017-04-07T07:48:55.571Z,1017.7
2017-04-07T07:49:55.601Z,1017.68
2017-04-07T07:50:55.534Z,1017.75
2017-04-07T07:51:55.563Z,1017.73
2017-04-07T07:52:55.494Z,1017.78
2017-04-07T07:53:55.523Z,1017.69
2017-04-07T07:54:55.453Z,1017.71
2017-04-07T07:55:55.585Z,1017.67
2017-04-07T07:56:55.413Z,1017.75
2017-04-07T07:57:55.394Z,1017.76
2017-04-07T07:58:55.373Z,1017.76
2017-04-07T07:59:55.360Z,1017.73
2017-04-07T08:00:55.336Z,1017.78
2017-04-07T08:01:55.357Z,1017.81
2017-04-07T08:02:55.293Z,1017.79
2017-04-07T08:03:55.334Z,1017.8
2017-04-07T08:04:55.251Z,1017.78
2017-04-07T08:05:55.280Z,1017.78
2017-04-07T08:06:55.217Z,1017.77
2017-04-07T08:07:55.193Z,1017.81
2017-04-07T08:08:55.173Z,1017.83
2017-04-07T08:09:55.152Z,1017.8
2017-04-07T08:10:55.134Z,1017.78
2017-04-07T08:11:55.112Z,1017.84
2017-04-07T08:12:55.091Z,1017.81
2017-04-07T08:13:55.073Z,1017.85
2017-04-07T08:14:55.053Z,1017.82
2017-04-07T08:15:55.043Z,1017.78
2017-04-07T08:16:55.019Z,1017.81
2017-04-07T08:17:55.003Z,1017.81
2017-04-07T08:18:54.984Z,1017.83
2017-04-07T08:19:54.963Z,1017.79
2017-04-07T08:20:54.943Z,1017.82
2017-04-07T08:21:54.920Z,1017.8
2017-04-07T08:22:54.907Z,1017.83
2017-04-07T08:23:54.883Z,1017.81
2017-04-07T08:24:54.861Z,1017.89
2017-04-07T08:25:54.842Z,1017.83
2017-04-07T08:26:54.824Z,1017.86
2017-04-07T08:27:54.803Z,1017.89
2017-04-07T08:28:54.789Z,1017.94
2017-04-07T08:29:54.762Z,1017.9
2017-04-07T08:30:54.746Z,1017.86
2017-04-07T08:31:54.731Z,1017.88
2017-04-07T08:32:54.712Z,1017.89
2017-04-07T08:33:54.691Z,1017.9
2017-04-07T08:34:54.666Z,1017.89
2017-04-07T08:35:54.649Z,1017.87
2017-04-07T08:36:54.637Z,1017.93
2017-04-07T08:37:54.611Z,1017.88
2017-04-07T08:38:54.592Z,1017.88
2017-04-07T08:39:54.572Z,1017.81
2017-04-07T08:40:54.551Z,1017.85
2017-04-07T08:41:54.533Z,1017.83
2017-04-07T08:42:54.513Z,1017.82
2017-04-07T08:43:54.504Z,1017.85
2017-04-07T08:44:54.476Z,1017.87
2017-04-07T08:45:54.464Z,1017.8
2017-04-07T08:46:54.442Z,1017.79
2017-04-07T08:47:54.418Z,1017.87
2017-04-07T08:48:54.401Z,1017.81
2017-04-07T08:49:54.382Z,1017.81
2017-04-07T08:50:54.365Z,1017.82
2017-04-07T08:51:54.343Z,1017.87
2017-04-07T08:52:54.326Z,1017.93
2017-04-07T08:53:54.306Z,1017.92
2017-04-07T08:54:54.285Z,1017.96
2017-04-07T08:55:54.270Z,1017.91
2017-04-07T08:56:54.248Z,1017.94
2017-04-07T08:57:54.228Z,1017.92
2017-04-07T08:58:54.213Z,1017.9
2017-04-07T08:59:54.193Z,1017.9
2017-04-07T09:00:54.171Z,1017.91
2017-04-07T09:01:54.161Z,1017.89
2017-04-07T09:02:54.142Z,1017.92
2017-04-07T09:03:54.117Z,1017.9
2017-04-07T09:04:54.097Z,1017.94
2017-04-07T09:05:54.095Z,1017.87
2017-04-07T09:06:54.097Z,1017.92
2017-04-07T09:07:54.141Z,1017.91
2017-04-07T09:08:54.021Z,1017.9
2017-04-07T09:09:54.107Z,1017.93
2017-04-07T09:10:53.990Z,1018.01
2017-04-07T09:11:53.998Z,1017.94
2017-04-07T09:12:53.952Z,1017.98
2017-04-07T09:13:53.929Z,1017.96
2017-04-07T09:14:53.912Z,1017.92
2017-04-07T09:15:53.893Z,1017.9
2017-04-07T09:16:53.873Z,1017.95
2017-04-07T09:17:53.859Z,1017.91
2017-04-07T09:18:53.840Z,1017.92
2017-04-07T09:19:53.846Z,1017.88
2017-04-07T09:20:53.802Z,1017.87
2017-04-07T09:21:53.783Z,1017.84
2017-04-07T09:22:53.765Z,1017.83
2017-04-07T09:23:53.752Z,1017.83
2017-04-07T09:24:53.731Z,1017.82
2017-04-07T09:25:53.814Z,1017.78
2017-04-07T09:26:53.691Z,1017.75
2017-04-07T09:27:53.678Z,1017.74
2017-04-07T09:28:53.653Z,1017.74
2017-04-07T09:29:53.683Z,1017.74
2017-04-07T09:30:53.615Z,1017.71
2017-04-07T09:31:53.701Z,1017.68
2017-04-07T09:32:53.582Z,1017.73
2017-04-07T09:33:53.620Z,1017.71
2017-04-07T09:34:53.548Z,1017.69
2017-04-07T09:35:53.623Z,1017.65
2017-04-07T09:36:53.509Z,1017.73
2017-04-07T09:37:53.496Z,1017.71
2017-04-07T09:38:53.470Z,1017.71
2017-04-07T09:39:53.463Z,1017.68
2017-04-07T09:40:53.433Z,1017.71
2017-04-07T09:41:53.421Z,1017.64
2017-04-07T09:42:53.398Z,1017.61
2017-04-07T09:43:53.429Z,1017.66
2017-04-07T09:44:53.365Z,1017.65
2017-04-07T09:45:53.395Z,1017.61
2017-04-07T09:46:53.324Z,1017.65
2017-04-07T09:47:53.315Z,1017.67
2017-04-07T09:48:53.290Z,1017.64
2017-04-07T09:49:53.270Z,1017.59
2017-04-07T09:50:53.263Z,1017.64
2017-04-07T09:51:53.240Z,1017.6
2017-04-07T09:52:53.218Z,1017.6
2017-04-07T09:53:53.202Z,1017.63
2017-04-07T09:54:53.183Z,1017.59
2017-04-07T09:55:53.162Z,1017.59
2017-04-07T09:56:53.152Z,1017.53
2017-04-07T09:57:53.129Z,1017.59
2017-04-07T09:58:53.114Z,1017.57
2017-04-07T09:59:53.095Z,1017.58
2017-04-07T10:00:53.072Z,1017.58
2017-04-07T10:01:53.059Z,1017.59
2017-04-07T10:02:53.047Z,1017.56
2017-04-07T10:03:53.029Z,1017.58
2017-04-07T10:04:53.013Z,1017.56
2017-04-07T10:05:52.997Z,1017.57
2017-04-07T10:06:52.984Z,1017.55
2017-04-07T10:07:52.975Z,1017.57
2017-04-07T10:08:52.953Z,1017.58
2017-04-07T10:09:52.949Z,1017.6
2017-04-07T10:10:52.921Z,1017.63
2017-04-07T10:11:52.912Z,1017.58
2017-04-07T10:12:52.899Z,1017.54
2017-04-07T10:13:52.883Z,1017.55
2017-04-07T10:14:52.877Z,1017.56
2017-04-07T10:15:52.855Z,1017.48
2017-04-07T10:16:52.843Z,1017.54
2017-04-07T10:17:52.829Z,1017.49
2017-04-07T10:18:52.822Z,1017.57
2017-04-07T10:19:52.813Z,1017.61
2017-04-07T10:20:52.792Z,1017.65
2017-04-07T10:21:52.783Z,1017.62
2017-04-07T10:22:52.771Z,1017.59
2017-04-07T10:23:52.763Z,1017.55
2017-04-07T10:24:52.744Z,1017.59
2017-04-07T10:25:52.732Z,1017.55
2017-04-07T10:26:52.725Z,1017.6
2017-04-07T10:27:52.706Z,1017.54
2017-04-07T10:28:52.690Z,1017.54
2017-04-07T10:29:52.681Z,1017.49
2017-04-07T10:30:52.672Z,1017.55
2017-04-07T10:31:52.663Z,1017.52
2017-04-07T10:32:52.646Z,1017.54
2017-04-07T10:33:52.633Z,1017.49
2017-04-07T10:34:52.628Z,1017.49
2017-04-07T10:35:52.612Z,1017.5
2017-04-07T10:36:52.595Z,1017.43
2017-04-07T10:37:52.584Z,1017.46
2017-04-07T10:38:52.575Z,1017.51
2017-04-07T10:39:52.554Z,1017.48
2017-04-07T10:40:52.544Z,1017.52
2017-04-07T10:41:52.535Z,1017.53
2017-04-07T10:42:52.521Z,1017.48
2017-04-07T10:43:52.505Z,1017.51
2017-04-07T10:44:52.490Z,1017.48
2017-04-07T10:45:52.483Z,1017.51
2017-04-07T10:46:52.465Z,1017.53
2017-04-07T10:47:52.455Z,1017.5
2017-04-07T10:48:52.435Z,1017.5
2017-04-07T10:49:52.423Z,1017.5
2017-04-07T10:50:52.411Z,1017.43
2017-04-07T10:51:52.399Z,1017.49
2017-04-07T10:52:52.391Z,1017.53
2017-04-07T10:53:52.372Z,1017.53
2017-04-07T10:54:52.353Z,1017.45
2017-04-07T10:55:52.338Z,1017.5
2017-04-07T10:56:52.328Z,1017.49
2017-04-07T10:57:52.312Z,1017.48
2017-04-07T10:58:52.298Z,1017.48
2017-04-07T10:59:52.294Z,1017.47
2017-04-07T11:00:52.575Z,1017.43
2017-04-07T11:01:52.258Z,1017.45
2017-04-07T11:02:52.250Z,1017.44
2017-04-07T11:03:52.231Z,1017.43
2017-04-07T11:04:52.318Z,1017.37
2017-04-07T11:05:52.201Z,1017.44
2017-04-07T11:06:52.194Z,1017.44
2017-04-07T11:07:52.173Z,1017.42
2017-04-07T11:08:52.158Z,1017.42
2017-04-07T11:09:52.146Z,1017.4
2017-04-07T11:10:52.136Z,1017.4
2017-04-07T11:11:52.117Z,1017.4
2017-04-07T11:12:52.103Z,1017.44
2017-04-07T11:13:52.089Z,1017.41
2017-04-07T11:14:52.185Z,1017.36
2017-04-07T11:15:52.061Z,1017.35
2017-04-07T11:16:52.146Z,1017.36
2017-04-07T11:17:52.037Z,1017.32
2017-04-07T11:18:52.036Z,1017.36
2017-04-07T11:19:52.005Z,1017.35
2017-04-07T11:20:51.995Z,1017.36
2017-04-07T11:21:51.980Z,1017.47
2017-04-07T11:22:51.974Z,1017.39
2017-04-07T11:23:51.953Z,1017.38
2017-04-07T11:24:51.945Z,1017.35
2017-04-07T11:25:51.932Z,1017.45
2017-04-07T11:26:51.921Z,1017.31
2017-04-07T11:27:51.905Z,1017.32
2017-04-07T11:28:51.891Z,1017.31
2017-04-07T11:29:51.873Z,1017.38
2017-04-07T11:30:51.924Z,1017.39
2017-04-07T11:31:51.849Z,1017.43
2017-04-07T11:32:51.835Z,1017.35
2017-04-07T11:33:51.835Z,1017.36
2017-04-07T11:34:51.806Z,1017.48
2017-04-07T11:35:51.793Z,1017.43
2017-04-07T11:36:51.787Z,1017.44
2017-04-07T11:37:51.774Z,1017.41
2017-04-07T11:38:51.755Z,1017.44
2017-04-07T11:39:51.745Z,1017.42
2017-04-07T11:40:51.783Z,1017.46
2017-04-07T11:41:51.713Z,1017.49
2017-04-07T11:42:51.702Z,1017.43
2017-04-07T11:43:51.688Z,1017.46
2017-04-07T11:44:51.685Z,1017.38
2017-04-07T11:45:51.663Z,1017.39
2017-04-07T11:46:51.649Z,1017.31
2017-04-07T11:47:51.636Z,1017.34
2017-04-07T11:48:51.621Z,1017.3
2017-04-07T11:49:51.610Z,1017.37
2017-04-07T11:50:51.592Z,1017.39
2017-04-07T11:51:51.580Z,1017.3
2017-04-07T11:52:51.572Z,1017.26
2017-04-07T11:53:51.551Z,1017.29
2017-04-07T11:54:51.546Z,1017.31
2017-04-07T11:55:51.532Z,1017.26
2017-04-07T11:56:51.512Z,1017.24
2017-04-07T11:57:51.501Z,1017.27
2017-04-07T11:58:51.486Z,1017.25
2017-04-07T11:59:51.470Z,1017.23
2017-04-07T12:00:51.461Z,1017.25
2017-04-07T12:01:51.445Z,1017.18
2017-04-07T12:02:51.431Z,1017.2
2017-04-07T12:03:51.420Z,1017.19
2017-04-07T12:04:51.401Z,1017.21
2017-04-07T12:05:51.388Z,1017.2
2017-04-07T12:06:51.372Z,1017.16
2017-04-07T12:07:51.356Z,1017.17